Rayne, LA (70578)

10:36 AM CST on January 31, 2015 (GMT -0600)
APRSWXNET Rayne LA US | Change Station
CLOSE
Current Station
Personal Weather Station
Location: Rayne, LA
Elevation: 26 ft
Nearby Weather Stations

Elev 26 ft 30.27 °N, 92.26 °W | Updated 35 minutes ago

Clear
Clear
51 °F
Feels Like 51 °F
N
6
Wind Variable Wind from East
Gusts 9.0 mph

Today
High -- | Low -- °F
--% Chance of Precip.
Yesterday
High -- | Low -- °F
Precip. -- in
7:00 AM 5:44 PM
Waxing Gibbous, 90% visible
Pressure 30.29 in
Visibility 10.0 miles
Clouds Clear
Dew Point 41 °F
Humidity 69%
Rainfall 0.00 in
Snow Depth Not available.
UV 3 out of 12
Pollen 8.70 out of 12
Air Quality Not available.
Flu Activity Not available.
METAR KLFT 311553Z VRB03KT 10SM CLR 12/03 A3029 RMK AO2 SLP256 T01170033

More Conditions Fewer Conditions

Pressure 30.29 in
Visibility 10.0 miles
Clouds Clear
Dew Point 41 °F
Humidity 69%
Rainfall 0.00 in
Snow Depth Not available.
UV 3 out of 12
Pollen 8.70 out of 12
Air Quality Not available.
Flu Activity Not available.
METAR KLFT 311553Z VRB03KT 10SM CLR 12/03 A3029 RMK AO2 SLP256 T01170033

More Conditions Fewer Conditions

10-Day Weather Forecast

Almanac

Astronomy

Jan. 31, 2015 Rise Set
Actual Time
Civil Twilight
Nautical Twilight
Astronomical Twilight
Moon
Length of Visible Light
Length of Day
Tomorrow will be .
, % of the Moon is Illuminated

Today's Extremes

State Highs State Lows

Community

WunderPhotos

Upload Photos

1,792,106 photos uploaded!

WunderBlogs® & News

Nearby

Air Quality

  Air Quality AQ Index Pollutant
Not available.

Snow Depth

Station Depth Elevation

Earthquake Activity

City Distance Mag. Time & Date
Minimum magnitude displayed is 2.5.

Coastal Water Temperatures

Place Temperature

Nearby Weather Stations